Latest Weather Observations for Kununurra Airport

IDW60801

Issued at 1:05 am WST Wednesday 17 September 2014 (issued every 30 minutes, with the page automatically refreshed every 10 minutes)

About weather observations | Map of weather stations | Latest weather observations for WA | Other Formats
Station Details ID: 002056 Name: KUNUNURRA AERO Lat: -15.78 Lon: 128.71 Height: 44.0 m
Data from the previous 72 hours. | See also: Recent months at Kununurra Airport
Date/Time
WST
Temp
°C
App
Temp
°C
Dew
Point
Rel
Hum
%
Delta-T
°C
Wind Press
QNH
hPa
Press
MSL
hPa
Rain
since 9 am
mm
Dir
 
Spd
km/h
Gust
km/h
Spd
kts
Gust
kts
17/01:00am 19.3 20.2 12.9 66 3.6 NNE 0 7 0 4 1011.9 - 0.0
17/12:30am 19.6 20.6 13.3 67 3.6 NNE 0 0 0 0 1011.9 - 0.0
17/12:09am 19.3 20.3 13.1 67 3.5 CALM 0 0 0 0 1012.1 - 0.0
17/12:05am 19.2 20.1 12.8 66 3.6 CALM 0 0 0 0 1012.1 - 0.0
17/12:00am 19.3 20.1 12.5 64 3.8 NNE 0 0 0 0 1012.1 1011.8 0.0
 
Date/Time
WST
Temp
°C
App
Temp
°C
Dew
Point
Rel
Hum
%
Delta-T
°C
Wind Press
QNH
hPa
Press
MSL
hPa
Rain
since 9 am
mm
Dir
 
Spd
km/h
Gust
km/h
Spd
kts
Gust
kts
16/11:41pm 20.3 19.5 12.9 62 4.2 NNE 9 9 5 5 1012.3 - 0.0
16/11:30pm 20.5 20.1 12.9 61 4.3 N 7 9 4 5 1012.4 - 0.0
16/11:00pm 20.5 20.1 13.1 62 4.2 N 7 7 4 4 1012.5 - 0.0
16/10:58pm 20.5 20.4 13.3 63 4.1 N 6 7 3 4 1012.5 - 0.0
16/10:48pm 21.4 21.0 13.0 58 4.8 N 7 11 4 6 1012.5 - 0.0
16/10:30pm 21.6 21.4 13.0 58 4.9 N 6 7 3 4 1012.6 - 0.0
16/10:20pm 22.0 21.6 12.9 56 5.2 NNE 7 9 4 5 1012.5 - 0.0
16/10:00pm 22.5 22.0 12.7 54 5.6 NNE 7 9 4 5 1012.5 - 0.0
16/09:57pm 22.6 22.0 12.4 52 5.8 NNE 7 9 4 5 1012.5 - 0.0
16/09:30pm 23.7 22.8 12.5 49 6.4 N 9 9 5 5 1012.4 - 0.0
16/09:00pm 22.8 21.6 12.7 53 5.8 N 11 11 6 6 1012.6 1012.3 0.0
16/08:59pm 22.8 21.6 12.7 53 5.8 N 11 11 6 6 1012.6 - 0.0
16/08:54pm 22.8 21.5 12.5 52 5.9 N 11 11 6 6 1012.5 - 0.0
16/08:30pm 23.2 22.5 13.2 53 5.8 N 9 11 5 6 1012.4 - 0.0
16/08:00pm 23.8 23.6 12.9 50 6.3 N 6 9 3 5 1012.5 - 0.0
16/07:47pm 24.0 23.0 12.3 48 6.7 N 9 13 5 7 1012.5 - 0.0
16/07:46pm 24.2 22.8 12.1 46 6.9 N 11 13 6 7 1012.5 - 0.0
16/07:30pm 24.9 23.4 11.9 44 7.4 N 11 15 6 8 1012.3 - 0.0
16/07:00pm 26.1 23.8 11.6 40 8.3 N 15 17 8 9 1011.9 - 0.0
16/06:43pm 26.4 24.4 11.5 39 8.5 N 13 15 7 8 1011.8 - 0.0
16/06:30pm 26.5 24.6 11.7 39 8.5 N 13 15 7 8 1011.6 - 0.0
16/06:00pm 28.4 26.4 11.4 34 9.8 N 13 15 7 8 1011.1 1010.8 0.0
16/05:30pm 30.0 27.3 10.3 29 11.2 N 15 20 8 11 1010.6 - 0.0
16/05:00pm 31.5 28.0 8.8 24 12.7 N 17 20 9 11 1010.1 - 0.0
16/04:30pm 33.4 29.4 8.2 21 14.1 NNE 19 24 10 13 1009.8 - 0.0
16/04:00pm 34.6 31.4 6.9 18 15.3 N 13 19 7 10 1009.5 - 0.0
16/03:30pm 35.2 31.3 7.1 17 15.6 NNE 17 24 9 13 1009.4 - 0.0
16/03:00pm 35.5 31.9 5.0 15 16.4 ENE 13 20 7 11 1009.3 1009.0 0.0
16/02:30pm 35.5 31.7 5.7 16 16.2 NE 15 20 8 11 1009.4 - 0.0
16/02:00pm 35.9 31.8 6.3 16 16.3 E 17 19 9 10 1009.7 - 0.0
16/01:30pm 35.7 31.7 8.4 18 15.5 NE 19 26 10 14 1010.1 - 0.0
16/01:00pm 35.1 30.9 7.5 18 15.4 NNE 19 28 10 15 1010.5 - 0.0
16/12:30pm 34.4 32.2 10.8 23 13.8 E 13 20 7 11 1011.1 - 0.0
16/12:00pm 33.8 32.8 11.1 25 13.3 N 7 19 4 10 1011.7 1011.4 0.0
16/11:34am 33.4 32.0 11.0 25 13.1 NE 9 20 5 11 1012.2 - 0.0
16/11:30am 33.2 31.0 10.9 25 13.0 N 13 20 7 11 1012.3 - 0.0
16/11:21am 33.6 31.3 10.5 24 13.4 N 13 20 7 11 1012.4 - 0.0
16/11:00am 32.1 30.5 11.4 28 12.1 N 11 19 6 10 1012.8 - 0.0
16/10:30am 32.1 28.8 8.1 22 13.3 NE 15 22 8 12 1013.1 - 0.0
16/10:00am 31.2 28.9 10.4 27 11.9 NNE 13 19 7 10 1013.4 - 0.0
16/09:30am 29.9 28.3 11.4 32 10.7 NNE 11 20 6 11 1013.7 - 0.0
16/09:00am 28.8 27.5 11.2 33 10.1 N 9 13 5 7 1013.9 1013.7 0.0
16/08:30am 27.4 26.8 10.3 34 9.6 S 4 9 2 5 1013.9 - 0.0
16/08:23am 27.2 26.2 8.7 31 10.1 S 4 7 2 4 1013.9 - 0.0
16/08:05am 26.1 25.6 9.3 34 9.2 SW 2 6 1 3 1013.8 - 0.0
16/08:00am 25.8 26.0 10.6 38 8.5 CALM 0 0 0 0 1013.8 - 0.0
16/07:30am 23.4 22.9 12.6 50 6.2 SE 7 9 4 5 1013.5 - 0.0
16/07:05am 21.6 23.4 15.4 68 3.7 CALM 0 4 0 2 1013.4 - 0.0
16/07:00am 21.2 22.9 15.3 69 3.5 CALM 0 4 0 2 1013.3 - 0.0
16/06:30am 17.2 17.3 13.9 81 1.9 W 6 6 3 3 1013.0 - 0.0
16/06:00am 15.5 16.4 12.8 84 1.5 ESE 0 0 0 0 1012.7 1012.4 0.0
16/05:30am 14.7 15.2 11.5 81 1.7 CALM 0 0 0 0 1012.3 - 0.0
16/05:00am 14.8 15.1 12.2 84 1.4 ESE 2 6 1 3 1012.1 - 0.0
16/04:44am 15.2 14.6 11.7 79 1.9 ESE 6 7 3 4 1011.9 - 0.0
16/04:30am 16.3 16.2 13.8 85 1.4 E 7 9 4 5 1011.9 - 0.0
16/04:02am 15.9 15.2 11.5 75 2.4 SE 6 7 3 4 1011.7 - 0.0
16/04:00am 15.7 14.9 11.0 73 2.5 SE 6 7 3 4 1011.6 - 0.0
16/03:46am 15.2 14.7 10.9 75 2.3 SSE 4 6 2 3 1011.4 - 0.0
16/03:30am 15.1 15.2 11.4 78 2.0 NW 2 7 1 4 1011.2 - 0.0
16/03:00am 14.9 15.3 11.4 79 1.9 CALM 0 0 0 0 1011.1 1010.8 0.0
16/02:34am 15.5 15.2 11.6 77 2.1 NW 4 7 2 4 1011.0 - 0.0
16/02:30am 15.0 14.2 11.1 77 2.1 NW 6 9 3 5 1011.1 - 0.0
16/02:00am 15.6 15.5 9.6 67 3.1 CALM 0 0 0 0 1011.0 - 0.0
16/01:49am 16.1 16.6 11.5 74 2.5 CALM 0 0 0 0 1010.9 - 0.0
16/01:30am 16.1 16.3 10.7 70 2.9 CALM 0 0 0 0 1011.0 - 0.0
16/01:00am 16.1 16.5 11.1 72 2.7 CALM 0 0 0 0 1011.1 - 0.0
16/12:30am 17.1 17.1 9.7 61 3.9 CALM 0 0 0 0 1011.2 - 0.0
16/12:00am 17.9 17.7 9.1 56 4.6 CALM 0 0 0 0 1011.4 1011.1 0.0
 
Date/Time
WST
Temp
°C
App
Temp
°C
Dew
Point
Rel
Hum
%
Delta-T
°C
Wind Press
QNH
hPa
Press
MSL
hPa
Rain
since 9 am
mm
Dir
 
Spd
km/h
Gust
km/h
Spd
kts
Gust
kts
15/11:30pm 17.9 18.0 10.0 60 4.2 CALM 0 0 0 0 1011.6 - 0.0
15/11:00pm 19.1 18.9 9.0 52 5.3 CALM 0 0 0 0 1012.0 - 0.0
15/10:30pm 18.9 19.5 11.9 64 3.9 CALM 0 0 0 0 1012.1 - 0.0
15/10:00pm 19.9 20.2 10.9 56 4.9 CALM 0 0 0 0 1012.0 - 0.0
15/09:30pm 22.9 23.3 11.3 48 6.5 CALM 0 0 0 0 1012.0 - 0.0
15/09:00pm 23.1 20.3 9.9 43 7.2 N 15 17 8 9 1012.0 1011.7 0.0
15/08:30pm 23.3 20.1 8.5 38 7.9 NNE 15 17 8 9 1011.9 - 0.0
15/08:00pm 23.6 20.1 7.1 34 8.6 N 15 17 8 9 1011.8 - 0.0
15/07:30pm 23.8 20.9 6.6 33 8.9 NNW 11 13 6 7 1011.4 - 0.0
15/07:00pm 23.8 21.9 7.7 35 8.5 WSW 7 9 4 5 1010.9 - 0.0
15/06:30pm 24.4 23.9 11.9 45 7.1 SSW 6 11 3 6 1010.6 - 0.0
15/06:00pm 26.5 25.6 5.9 26 10.7 CALM 0 0 0 0 1010.4 1010.1 0.0
15/05:30pm 29.7 27.7 6.2 22 12.5 E 6 7 3 4 1010.0 - 0.0
15/05:00pm 33.7 29.7 -7.6 6 17.9 SSW 6 7 3 4 1009.8 - 0.0
15/04:30pm 34.9 31.2 -4.3 8 18.1 SW 6 7 3 4 1009.6 - 0.0
15/04:00pm 35.6 32.1 -6.8 6 18.9 SSW 4 9 2 5 1009.5 - 0.0
15/03:30pm 35.6 30.1 -15.0 3 19.8 S 11 17 6 9 1009.4 - 0.0
15/03:00pm 35.7 30.0 -13.2 4 19.7 S 13 19 7 10 1009.6 1009.3 0.0
15/02:30pm 35.9 30.9 -13.0 4 19.8 SSW 9 13 5 7 1009.7 - 0.0
15/02:00pm 36.1 31.3 -10.9 4 19.7 SE 9 15 5 8 1010.0 - 0.0
15/01:30pm 35.9 30.0 -15.4 3 20.0 ESE 13 20 7 11 1010.5 - 0.0
15/01:00pm 36.0 31.4 -12.5 4 19.8 ESE 7 13 4 7 1010.9 - 0.0
15/12:30pm 35.8 30.8 -13.8 3 19.8 ESE 9 15 5 8 1011.4 - 0.0
15/12:00pm 35.2 29.3 -17.0 3 19.7 SSE 13 19 7 10 1011.9 1011.6 0.0
15/11:30am 34.8 27.1 -17.5 3 19.5 SSE 22 32 12 17 1012.4 - 0.0
15/11:00am 35.4 29.2 -14.3 3 19.6 ESE 15 24 8 13 1012.9 - 0.0
15/10:30am 34.2 29.0 -10.3 5 18.5 ESE 11 17 6 9 1013.5 - 0.0
15/10:00am 34.3 28.7 -10.7 5 18.6 E 13 20 7 11 1014.1 - 0.0
15/09:30am 31.9 28.2 -4.3 9 16.3 N 6 11 3 6 1014.5 - 0.0
15/09:00am 31.0 26.7 -4.4 10 15.8 N 9 15 5 8 1014.8 1014.6 0.0
15/08:30am 30.1 25.2 -3.4 11 15.1 ENE 13 19 7 10 1014.9 - 0.0
15/08:00am 28.6 24.9 -2.6 13 14.1 N 7 9 4 5 1014.8 - 0.0
15/07:30am 26.2 23.6 3.3 22 11.3 N 6 9 3 5 1014.5 - 0.0
15/07:00am 23.0 21.0 6.9 35 8.3 N 7 7 4 4 1014.1 - 0.0
15/06:30am 20.9 20.4 8.0 43 6.7 CALM 0 6 0 3 1013.6 - 0.0
15/06:27am 20.0 19.9 9.5 50 5.6 CALM 0 6 0 3 1013.6 - 0.0
15/06:00am 15.0 13.1 6.8 58 4.0 S 6 7 3 4 1013.3 1013.0 0.0
15/05:30am 14.0 13.0 5.5 56 4.0 CALM 0 0 0 0 1012.9 - 0.0
15/05:00am 14.0 12.7 6.0 58 3.8 N 2 6 1 3 1012.7 - 0.0
15/04:30am 14.5 13.3 4.6 51 4.6 CALM 0 0 0 0 1012.5 - 0.0
15/04:00am 14.3 12.0 5.9 57 4.0 NNW 7 9 4 5 1012.2 - 0.0
15/03:30am 15.3 13.5 7.0 57 4.1 NNW 6 7 3 4 1012.0 - 0.0
15/03:00am 14.7 11.9 5.2 53 4.5 N 9 11 5 6 1011.7 1011.4 0.0
15/02:30am 15.8 13.8 6.1 52 4.7 N 6 9 3 5 1011.5 - 0.0
15/02:00am 16.3 15.7 7.3 55 4.5 CALM 0 0 0 0 1011.5 - 0.0
15/01:30am 16.0 15.2 6.4 53 4.7 CALM 0 2 0 1 1011.7 - 0.0
15/01:00am 17.0 14.9 5.7 47 5.5 N 6 9 3 5 1011.7 - 0.0
15/12:30am 16.9 14.8 6.8 51 5.0 NW 7 11 4 6 1011.8 - 0.0
15/12:00am 17.2 15.0 5.4 45 5.7 NNW 6 11 3 6 1012.0 1011.7 0.0
 
Date/Time
WST
Temp
°C
App
Temp
°C
Dew
Point
Rel
Hum
%
Delta-T
°C
Wind Press
QNH
hPa
Press
MSL
hPa
Rain
since 9 am
mm
Dir
 
Spd
km/h
Gust
km/h
Spd
kts
Gust
kts
14/11:30pm 17.5 15.5 4.4 42 6.2 NNW 4 7 2 4 1012.3 - 0.0
14/11:00pm 17.8 15.6 6.0 46 5.8 NNW 7 9 4 5 1012.5 - 0.0
14/10:30pm 19.6 17.2 4.2 36 7.4 NW 6 7 3 4 1012.6 - 0.0
14/10:00pm 19.6 16.9 5.6 40 6.9 N 9 9 5 5 1012.7 - 0.0
14/09:30pm 20.1 17.9 5.5 38 7.2 N 6 7 3 4 1012.7 - 0.0
14/09:00pm 20.3 18.1 3.5 33 8.0 SE 4 9 2 5 1012.4 1012.1 0.0
14/08:30pm 20.4 18.5 6.8 41 6.9 S 6 7 3 4 1012.4 - 0.0
14/08:00pm 21.4 18.9 3.8 31 8.5 SSE 6 7 3 4 1012.3 - 0.0
14/07:30pm 22.3 21.1 4.7 31 8.7 CALM 0 0 0 0 1012.2 - 0.0
14/07:00pm 23.9 21.6 3.0 25 10.1 SSE 4 6 2 3 1011.8 - 0.0
14/06:30pm 28.5 25.0 1.2 17 13.2 SSE 9 11 5 6 1011.4 - 0.0
14/06:00pm 26.0 23.0 4.3 24 10.9 S 9 11 5 6 1011.1 1010.8 0.0
14/05:30pm 27.9 25.6 4.7 22 11.9 SE 6 7 3 4 1010.6 - 0.0
14/05:00pm 32.9 27.6 -7.4 7 17.4 E 13 17 7 9 1010.1 - 0.0
14/04:30pm 35.0 29.3 -13.3 4 19.3 E 13 19 7 10 1009.8 - 0.0
14/04:00pm 35.6 28.0 -16.3 3 19.9 E 22 28 12 15 1009.9 - 0.0
14/03:30pm 36.0 29.9 -13.5 4 19.9 SE 15 20 8 11 1009.8 - 0.0
14/03:00pm 35.9 29.8 -13.0 4 19.8 SSE 15 20 8 11 1009.7 1009.4 0.0
14/02:30pm 36.7 30.1 -14.5 3 20.4 E 17 32 9 17 1009.8 - 0.0
14/02:00pm 36.3 30.9 -9.0 5 19.6 ESE 13 20 7 11 1010.1 - 0.0
14/01:30pm 36.0 29.7 -10.5 5 19.6 ESE 17 32 9 17 1010.5 - 0.0
14/01:00pm 36.3 29.6 -9.9 5 19.7 E 19 26 10 14 1010.9 - 0.0
14/12:30pm 35.9 30.5 -8.6 5 19.3 ESE 13 22 7 12 1011.4 - 0.0
14/12:00pm 35.6 29.1 -8.4 5 19.1 E 19 32 10 17 1011.9 1011.6 0.0
14/11:30am 35.6 28.8 -9.3 5 19.2 ESE 20 28 11 15 1012.4 - 0.0
14/11:00am 36.0 29.2 -9.8 5 19.5 ENE 20 26 11 14 1012.9 - 0.0
14/10:30am 36.1 27.8 -8.5 5 19.4 E 28 32 15 17 1013.5 - 0.0
14/10:00am 34.4 27.1 -6.4 7 18.1 E 24 37 13 20 1014.3 - 0.0
14/09:30am 34.0 26.7 -6.0 7 17.8 E 24 33 13 18 1014.8 - 0.0
14/09:00am 32.2 27.2 -3.9 9 16.4 E 13 19 7 10 1015.0 1014.8 0.0
14/08:30am 31.8 26.0 -4.6 9 16.3 E 17 24 9 13 1015.3 - 0.0
14/08:00am 30.3 26.0 -1.8 12 14.9 ESE 11 17 6 9 1015.3 - 0.0
14/07:30am 28.2 27.1 10.0 32 10.2 SE 6 9 3 5 1015.4 - 0.0
14/07:00am 25.8 24.1 6.1 28 10.2 S 4 6 2 3 1015.3 - 0.0
14/06:30am 21.3 20.9 12.5 57 5.0 ESE 6 7 3 4 1014.9 - 0.0
14/06:00am 17.3 16.8 10.8 65 3.5 NNE 4 7 2 4 1014.5 1014.3 0.0
14/05:30am 16.3 16.0 10.0 66 3.3 NNW 2 7 1 4 1013.9 - 0.0
14/05:00am 16.7 16.8 10.3 66 3.4 CALM 0 0 0 0 1013.6 - 0.0
14/04:30am 16.5 15.4 10.1 66 3.4 N 6 6 3 3 1013.2 - 0.0
14/04:00am 15.8 14.7 9.9 68 3.1 NNE 6 7 3 4 1012.8 - 0.0
14/03:30am 16.8 16.0 9.5 62 3.8 S 4 7 2 4 1012.4 - 0.0
14/03:00am 17.8 16.9 10.7 63 3.8 S 6 9 3 5 1012.3 1012.0 0.0
14/02:30am 17.2 16.0 8.2 55 4.6 S 4 7 2 4 1012.1 - 0.0
14/02:00am 18.0 16.9 10.1 60 4.2 SW 6 9 3 5 1012.1 - 0.0
14/01:30am 18.1 17.4 11.9 67 3.4 WSW 7 9 4 5 1012.4 - 0.0

Other Formats:

Comma delimited format used in spreadsheet applications
http://www.bom.gov.au/fwo/IDW60801/IDW60801.94216.axf

JavaScript Object Notation format (JSON) in row-major order
http://www.bom.gov.au/fwo/IDW60801/IDW60801.94216.json